createdAt,value
2018-03-18T00:00:02.832Z,74.80
2018-03-18T00:02:31.572Z,74.81
2018-03-18T00:05:00.632Z,74.37
2018-03-18T00:07:28.907Z,74.13
2018-03-18T00:09:57.173Z,74.09
2018-03-18T00:12:25.452Z,74.42
2018-03-18T00:14:53.720Z,74.13
2018-03-18T00:17:21.980Z,74.29
2018-03-18T00:19:50.288Z,74.05
2018-03-18T00:22:18.555Z,73.77
2018-03-18T00:24:46.840Z,73.69
2018-03-18T00:27:15.110Z,73.73
2018-03-18T00:29:43.396Z,73.87
2018-03-18T00:32:11.686Z,73.76
2018-03-18T00:34:39.955Z,73.24
2018-03-18T00:37:08.237Z,73.07
2018-03-18T00:39:36.496Z,72.99
2018-03-18T00:42:04.780Z,72.79
2018-03-18T00:44:33.048Z,72.97
2018-03-18T00:47:01.318Z,73.12
2018-03-18T00:49:29.600Z,72.85
2018-03-18T00:52:01.639Z,72.76
2018-03-18T00:54:30.001Z,72.58
2018-03-18T00:56:58.259Z,72.61
2018-03-18T00:59:27.292Z,72.52
2018-03-18T01:01:55.571Z,71.99
2018-03-18T01:04:23.839Z,71.90
2018-03-18T01:06:52.104Z,72.44
2018-03-18T01:09:20.377Z,71.95
2018-03-18T01:11:48.641Z,71.90
2018-03-18T01:14:16.915Z,71.27
2018-03-18T01:16:45.227Z,71.58
2018-03-18T01:19:13.498Z,71.59
2018-03-18T01:21:41.776Z,71.49
2018-03-18T01:24:10.132Z,71.75
2018-03-18T01:26:38.427Z,71.99
2018-03-18T01:29:06.689Z,71.63
2018-03-18T01:31:34.979Z,71.39
2018-03-18T01:34:03.256Z,71.09
2018-03-18T01:36:31.568Z,71.22
2018-03-18T01:38:59.852Z,71.41
2018-03-18T01:41:28.889Z,71.26
2018-03-18T01:43:57.167Z,71.65
2018-03-18T01:46:25.455Z,71.51
2018-03-18T01:48:53.728Z,71.50
2018-03-18T01:51:21.995Z,71.38
2018-03-18T01:53:50.292Z,71.53
2018-03-18T01:56:18.551Z,71.69
2018-03-18T01:58:46.821Z,70.92
2018-03-18T02:01:15.097Z,71.29
2018-03-18T02:03:43.361Z,71.26
2018-03-18T02:06:11.645Z,70.26
2018-03-18T02:08:39.921Z,70.14
2018-03-18T02:11:08.195Z,70.51
2018-03-18T02:13:36.480Z,70.77
2018-03-18T02:16:04.732Z,71.06
2018-03-18T02:18:33.785Z,71.13
2018-03-18T02:21:02.127Z,71.33
2018-03-18T02:23:31.630Z,71.05
2018-03-18T02:25:59.891Z,70.56
2018-03-18T02:28:28.172Z,70.34
2018-03-18T02:30:56.448Z,70.93
2018-03-18T02:33:24.727Z,70.39
2018-03-18T02:35:53.001Z,70.79
2018-03-18T02:38:21.273Z,70.19
2018-03-18T02:40:49.661Z,70.50
2018-03-18T02:43:17.824Z,69.80
2018-03-18T02:45:46.096Z,70.11
2018-03-18T02:48:15.144Z,69.42
2018-03-18T02:50:43.407Z,70.01
2018-03-18T02:53:11.688Z,70.39
2018-03-18T02:55:39.973Z,69.65
2018-03-18T02:58:08.236Z,70.17
2018-03-18T03:00:36.590Z,70.35
2018-03-18T03:03:04.872Z,70.14
2018-03-18T03:05:33.128Z,70.22
2018-03-18T03:08:01.412Z,70.16
2018-03-18T03:10:29.700Z,70.00
2018-03-18T03:12:57.980Z,70.08
2018-03-18T03:15:26.238Z,69.87
2018-03-18T03:17:54.509Z,70.84
2018-03-18T03:20:22.788Z,70.28
2018-03-18T03:22:51.115Z,69.95
2018-03-18T03:25:20.164Z,70.39
2018-03-18T03:27:48.460Z,69.97
2018-03-18T03:30:17.494Z,70.35
2018-03-18T03:32:46.541Z,70.15
2018-03-18T03:35:14.827Z,69.94
2018-03-18T03:37:43.092Z,69.83
2018-03-18T03:40:11.371Z,69.78
2018-03-18T03:42:39.631Z,70.20
2018-03-18T03:45:07.906Z,70.00
2018-03-18T03:47:36.182Z,69.90
2018-03-18T03:50:04.468Z,70.36
2018-03-18T03:52:32.724Z,70.96
2018-03-18T03:55:01.016Z,70.25
2018-03-18T03:57:29.299Z,70.40
2018-03-18T03:59:57.570Z,69.96
2018-03-18T04:02:25.849Z,69.85
2018-03-18T04:04:54.155Z,70.62
2018-03-18T04:07:22.426Z,70.13
2018-03-18T04:09:50.698Z,69.95
2018-03-18T04:12:18.961Z,69.95
2018-03-18T04:14:47.235Z,70.51
2018-03-18T04:17:15.669Z,70.16
2018-03-18T04:19:43.951Z,70.41
2018-03-18T04:22:12.980Z,69.96
2018-03-18T04:24:41.243Z,70.14
2018-03-18T04:27:09.567Z,70.22
2018-03-18T04:29:37.837Z,69.67
2018-03-18T04:32:06.127Z,69.33
2018-03-18T04:34:34.402Z,69.65
2018-03-18T04:37:02.672Z,70.40
2018-03-18T04:39:30.960Z,70.18
2018-03-18T04:41:59.220Z,70.07
2018-03-18T04:44:27.495Z,69.82
2018-03-18T04:46:55.840Z,69.38
2018-03-18T04:49:24.102Z,69.50
2018-03-18T04:51:52.368Z,69.89
2018-03-18T04:54:21.485Z,69.70
2018-03-18T04:56:49.772Z,69.34
2018-03-18T04:59:18.069Z,68.80
2018-03-18T05:01:46.320Z,68.75
2018-03-18T05:04:14.600Z,69.00
2018-03-18T05:06:42.865Z,68.69
2018-03-18T05:09:11.148Z,68.96
2018-03-18T05:11:39.442Z,68.51
2018-03-18T05:14:07.721Z,68.59
2018-03-18T05:16:35.981Z,68.51
2018-03-18T05:19:04.276Z,68.97
2018-03-18T05:21:32.549Z,68.63
2018-03-18T05:24:00.804Z,68.75
2018-03-18T05:26:29.087Z,68.65
2018-03-18T05:28:57.363Z,68.46
2018-03-18T05:31:25.619Z,68.63
2018-03-18T05:33:53.919Z,69.05
2018-03-18T05:36:22.195Z,69.09
2018-03-18T05:38:50.470Z,69.20
2018-03-18T05:41:18.749Z,69.21
2018-03-18T05:43:47.015Z,69.24
2018-03-18T05:46:15.278Z,69.26
2018-03-18T05:48:43.561Z,68.63
2018-03-18T05:51:11.829Z,68.66
2018-03-18T05:53:40.097Z,68.83
2018-03-18T05:56:08.378Z,68.68
2018-03-18T05:58:36.647Z,68.07
2018-03-18T06:01:05.679Z,67.75
2018-03-18T06:03:33.986Z,67.81
2018-03-18T06:06:02.256Z,67.73
2018-03-18T06:08:30.528Z,68.52
2018-03-18T06:10:58.817Z,68.05
2018-03-18T06:13:27.084Z,67.83
2018-03-18T06:15:55.352Z,67.62
2018-03-18T06:18:23.655Z,68.06
2018-03-18T06:20:52.690Z,67.60
2018-03-18T06:23:20.990Z,67.60
2018-03-18T06:25:49.275Z,67.27
2018-03-18T06:28:17.544Z,67.24
2018-03-18T06:30:45.831Z,67.13
2018-03-18T06:33:14.093Z,67.09
2018-03-18T06:35:42.373Z,67.03
2018-03-18T06:38:10.636Z,66.99
2018-03-18T06:40:38.905Z,66.84
2018-03-18T06:43:07.188Z,66.36
2018-03-18T06:45:35.555Z,66.69
2018-03-18T06:48:03.819Z,67.17
2018-03-18T06:50:32.106Z,66.94
2018-03-18T06:53:00.404Z,67.20
2018-03-18T06:55:28.686Z,67.55
2018-03-18T06:57:56.995Z,67.86
2018-03-18T07:00:26.051Z,67.43
2018-03-18T07:02:54.323Z,68.21
2018-03-18T07:05:22.611Z,68.37
2018-03-18T07:07:50.855Z,67.94
2018-03-18T07:10:19.132Z,67.61
2018-03-18T07:12:47.387Z,68.19
2018-03-18T07:15:16.415Z,67.75
2018-03-18T07:17:44.720Z,68.22
2018-03-18T07:20:12.980Z,67.99
2018-03-18T07:22:41.243Z,68.30
2018-03-18T07:25:09.531Z,70.02
2018-03-18T07:27:37.805Z,70.71
2018-03-18T07:30:06.087Z,70.94
2018-03-18T07:32:34.368Z,71.03
2018-03-18T07:35:02.635Z,72.74
2018-03-18T07:37:30.917Z,72.92
2018-03-18T07:39:59.195Z,73.15
2018-03-18T07:42:27.549Z,73.19
2018-03-18T07:44:55.811Z,73.11
2018-03-18T07:47:24.093Z,72.62
2018-03-18T07:49:52.351Z,72.31
2018-03-18T07:52:20.616Z,71.65
2018-03-18T07:54:49.669Z,72.32
2018-03-18T07:57:17.934Z,71.73
2018-03-18T07:59:46.191Z,71.96
2018-03-18T08:02:14.467Z,71.95
2018-03-18T08:04:42.736Z,71.97
2018-03-18T08:07:11.002Z,71.64
2018-03-18T08:09:40.040Z,70.81
2018-03-18T08:12:08.305Z,69.31
2018-03-18T08:14:36.567Z,68.96
2018-03-18T08:17:04.839Z,69.52
2018-03-18T08:19:33.106Z,67.91
2018-03-18T08:22:01.375Z,68.00
2018-03-18T08:24:29.651Z,68.18
2018-03-18T08:26:57.908Z,67.78
2018-03-18T08:29:26.963Z,67.29
2018-03-18T08:31:55.239Z,66.32
2018-03-18T08:34:23.499Z,65.62
2018-03-18T08:36:51.784Z,64.20
2018-03-18T08:39:20.065Z,63.58
2018-03-18T08:41:48.353Z,63.97
2018-03-18T08:44:16.621Z,63.15
2018-03-18T08:46:44.912Z,63.82
2018-03-18T08:49:13.172Z,62.54
2018-03-18T08:51:41.435Z,61.82
2018-03-18T08:54:09.727Z,61.39
2018-03-18T08:56:38.253Z,61.43
2018-03-18T08:59:07.288Z,60.60
2018-03-18T09:01:35.543Z,60.61
2018-03-18T09:04:03.824Z,61.58
2018-03-18T09:06:32.103Z,61.91
2018-03-18T09:09:00.386Z,61.93
2018-03-18T09:11:28.644Z,59.72
2018-03-18T09:13:56.929Z,59.57
2018-03-18T09:16:25.184Z,59.59
2018-03-18T09:18:55.332Z,60.04
2018-03-18T09:21:23.637Z,59.49
2018-03-18T09:23:51.903Z,58.86
2018-03-18T09:26:20.168Z,58.95
2018-03-18T09:28:48.451Z,59.99
2018-03-18T09:31:16.720Z,59.78
2018-03-18T09:33:45.007Z,58.78
2018-03-18T09:36:13.260Z,59.48
2018-03-18T09:38:41.516Z,58.80
2018-03-18T09:41:10.564Z,58.84
2018-03-18T09:43:38.835Z,58.56
2018-03-18T09:46:07.104Z,58.27
2018-03-18T09:48:35.379Z,59.37
2018-03-18T09:51:03.740Z,59.77
2018-03-18T09:53:32.047Z,59.23
2018-03-18T09:56:01.144Z,59.00
2018-03-18T09:58:29.369Z,59.12
2018-03-18T10:00:58.447Z,58.86
2018-03-18T10:03:27.534Z,58.12
2018-03-18T10:05:56.599Z,57.62
2018-03-18T10:08:24.898Z,61.98
2018-03-18T10:10:53.505Z,58.30
2018-03-18T10:13:21.805Z,57.66
2018-03-18T10:15:50.286Z,57.93
2018-03-18T10:18:18.597Z,56.56
2018-03-18T10:20:46.864Z,56.38
2018-03-18T10:23:15.136Z,56.32
2018-03-18T10:25:43.431Z,56.41
2018-03-18T10:28:11.703Z,56.54
2018-03-18T10:30:40.757Z,55.77
2018-03-18T10:33:09.043Z,55.57
2018-03-18T10:35:37.308Z,55.47
2018-03-18T10:38:05.881Z,55.36
2018-03-18T10:40:34.235Z,55.03
2018-03-18T10:43:03.293Z,55.37
2018-03-18T10:45:31.654Z,54.97
2018-03-18T10:47:59.968Z,54.77
2018-03-18T10:50:28.223Z,54.46
2018-03-18T10:52:56.517Z,53.95
2018-03-18T10:55:24.829Z,55.09
2018-03-18T10:57:53.208Z,55.09
2018-03-18T11:00:22.485Z,54.74
2018-03-18T11:02:51.094Z,54.22
2018-03-18T11:05:19.491Z,53.93
2018-03-18T11:07:47.910Z,52.76
2018-03-18T11:10:17.077Z,52.76
2018-03-18T11:12:46.485Z,53.99
2018-03-18T11:15:16.527Z,53.54
2018-03-18T11:17:45.412Z,52.58
2018-03-18T11:20:16.076Z,51.27
2018-03-18T11:22:46.254Z,51.81
2018-03-18T11:25:15.993Z,51.68
2018-03-18T11:27:45.149Z,53.13
2018-03-18T11:30:16.366Z,52.68
2018-03-18T11:32:46.172Z,52.73
2018-03-18T11:35:16.203Z,53.42
2018-03-18T11:37:46.652Z,52.77
2018-03-18T11:40:17.453Z,52.01
2018-03-18T11:42:47.205Z,53.16
2018-03-18T11:45:17.093Z,53.34
2018-03-18T11:47:46.868Z,52.87
2018-03-18T11:50:17.017Z,52.21
2018-03-18T11:52:47.586Z,52.77
2018-03-18T11:55:18.448Z,51.74
2018-03-18T11:57:48.287Z,50.92
2018-03-18T12:00:18.077Z,50.42
2018-03-18T12:02:47.826Z,50.12
2018-03-18T12:05:18.587Z,49.57
2018-03-18T12:07:48.487Z,49.05
2018-03-18T12:10:19.063Z,49.02
2018-03-18T12:12:48.938Z,48.83
2018-03-18T12:15:18.945Z,48.59
2018-03-18T12:17:49.724Z,49.67
2018-03-18T12:20:19.907Z,49.38
2018-03-18T12:22:49.598Z,50.81
2018-03-18T12:25:20.289Z,50.84
2018-03-18T12:27:50.115Z,51.02
2018-03-18T12:30:20.767Z,49.98
2018-03-18T12:32:51.624Z,49.99
2018-03-18T12:35:21.554Z,49.78
2018-03-18T12:37:51.338Z,50.27
2018-03-18T12:40:34.778Z,48.18
2018-03-18T12:43:22.849Z,47.30
2018-03-18T12:45:52.708Z,46.50
2018-03-18T12:48:22.540Z,48.17
2018-03-18T12:50:53.390Z,48.96
2018-03-18T12:53:22.718Z,49.32
2018-03-18T12:55:52.123Z,48.46
2018-03-18T12:58:21.426Z,47.33
2018-03-18T13:00:50.704Z,46.44
2018-03-18T13:03:20.083Z,45.89
2018-03-18T13:05:49.362Z,45.50
2018-03-18T13:08:18.695Z,45.64
2018-03-18T13:10:47.986Z,45.85
2018-03-18T13:13:18.154Z,45.38
2018-03-18T13:15:47.717Z,45.98
2018-03-18T13:18:17.194Z,46.50
2018-03-18T13:20:47.356Z,46.11
2018-03-18T13:23:16.786Z,46.59
2018-03-18T13:25:46.117Z,46.21
2018-03-18T13:28:15.359Z,47.24
2018-03-18T13:30:44.787Z,47.22
2018-03-18T13:33:14.226Z,47.97
2018-03-18T13:35:43.580Z,48.07
2018-03-18T13:38:12.825Z,47.65
2018-03-18T13:40:43.244Z,47.58
2018-03-18T13:43:12.984Z,47.92
2018-03-18T13:45:43.228Z,47.99
2018-03-18T13:48:12.511Z,47.81
2018-03-18T13:50:42.698Z,46.69
2018-03-18T13:53:12.018Z,46.84
2018-03-18T13:55:42.194Z,46.34
2018-03-18T13:58:11.575Z,46.24
2018-03-18T14:00:41.006Z,46.04
2018-03-18T14:03:10.403Z,46.17
2018-03-18T14:05:40.144Z,46.12
2018-03-18T14:08:10.534Z,46.03
2018-03-18T14:10:40.766Z,47.08
2018-03-18T14:13:10.260Z,47.23
2018-03-18T14:15:39.532Z,47.69
2018-03-18T14:18:08.844Z,46.97
2018-03-18T14:20:38.308Z,48.37
2018-03-18T14:23:08.391Z,48.00
2018-03-18T14:25:37.751Z,49.34
2018-03-18T14:28:07.797Z,48.27
2018-03-18T14:30:37.223Z,47.70
2018-03-18T14:33:06.853Z,47.27
2018-03-18T14:35:37.027Z,47.00
2018-03-18T14:38:06.477Z,46.26
2018-03-18T14:40:36.597Z,47.23
2018-03-18T14:43:05.983Z,46.24
2018-03-18T14:45:35.378Z,45.79
2018-03-18T14:48:05.339Z,46.93
2018-03-18T14:50:35.455Z,46.84
2018-03-18T14:53:06.004Z,48.60
2018-03-18T14:55:35.691Z,48.89
2018-03-18T14:58:06.260Z,48.85
2018-03-18T15:00:35.648Z,48.17
2018-03-18T15:03:04.915Z,48.10
2018-03-18T15:05:35.131Z,48.41
2018-03-18T15:08:04.610Z,47.47
2018-03-18T15:10:34.842Z,47.53
2018-03-18T15:13:04.139Z,47.58
2018-03-18T15:15:33.678Z,47.77
2018-03-18T15:18:03.131Z,47.91
2018-03-18T15:20:32.491Z,47.26
2018-03-18T15:23:01.959Z,46.68
2018-03-18T15:25:31.370Z,46.44
2018-03-18T15:28:01.481Z,46.47
2018-03-18T15:30:30.892Z,46.97
2018-03-18T15:33:00.185Z,46.61
2018-03-18T15:35:29.569Z,47.13
2018-03-18T15:37:59.084Z,47.44
2018-03-18T15:40:28.509Z,46.97
2018-03-18T15:42:58.708Z,46.11
2018-03-18T15:45:28.058Z,45.29
2018-03-18T15:47:57.608Z,44.85
2018-03-18T15:50:26.857Z,45.63
2018-03-18T15:52:57.201Z,45.16
2018-03-18T15:55:26.659Z,45.63
2018-03-18T15:57:57.914Z,45.39
2018-03-18T16:00:28.579Z,45.22
2018-03-18T16:02:58.622Z,45.93
2018-03-18T16:05:28.135Z,45.54
2018-03-18T16:07:59.592Z,46.92
2018-03-18T16:10:29.007Z,46.74
2018-03-18T16:12:58.628Z,45.82
2018-03-18T16:15:27.878Z,46.78
2018-03-18T16:17:57.221Z,46.28
2018-03-18T16:20:27.250Z,47.09
2018-03-18T16:22:57.568Z,48.00
2018-03-18T16:25:27.795Z,48.05
2018-03-18T16:27:57.842Z,48.09
2018-03-18T16:30:44.897Z,48.00
2018-03-18T16:33:14.181Z,48.64
2018-03-18T16:35:45.225Z,48.63
2018-03-18T16:38:15.029Z,48.87
2018-03-18T16:40:45.274Z,48.33
2018-03-18T16:43:15.159Z,48.66
2018-03-18T16:45:45.225Z,48.42
2018-03-18T16:48:15.154Z,48.50
2018-03-18T16:50:45.930Z,48.52
2018-03-18T16:53:15.798Z,48.40
2018-03-18T16:55:46.662Z,48.28
2018-03-18T16:58:16.551Z,48.81
2018-03-18T17:00:46.509Z,48.99
2018-03-18T17:03:16.442Z,49.24
2018-03-18T17:05:46.367Z,48.86
2018-03-18T17:08:17.728Z,49.92
2018-03-18T17:10:48.444Z,49.62
2018-03-18T17:13:18.439Z,49.56
2018-03-18T17:15:48.442Z,49.60
2018-03-18T17:18:18.155Z,50.30
2018-03-18T17:20:48.184Z,50.75
2018-03-18T17:23:18.062Z,50.16
2018-03-18T17:25:48.705Z,50.46
2018-03-18T17:28:18.469Z,50.18
2018-03-18T17:30:48.834Z,50.78
2018-03-18T17:33:18.873Z,50.38
2018-03-18T17:35:48.994Z,50.49
2018-03-18T17:38:18.927Z,50.82
2018-03-18T17:40:48.887Z,50.48
2018-03-18T17:43:18.890Z,50.70
2018-03-18T17:46:06.281Z,50.21
2018-03-18T17:48:54.070Z,51.20
2018-03-18T17:51:41.341Z,50.05
2018-03-18T17:54:29.273Z,51.20
2018-03-18T17:56:59.467Z,51.42
2018-03-18T17:59:29.481Z,50.88
2018-03-18T18:01:59.327Z,51.34
2018-03-18T18:04:30.384Z,50.31
2018-03-18T18:07:00.355Z,50.33
2018-03-18T18:09:31.327Z,50.37
2018-03-18T18:12:01.558Z,50.06
2018-03-18T18:14:31.655Z,50.18
2018-03-18T18:17:01.578Z,49.93
2018-03-18T18:19:31.656Z,50.32
2018-03-18T18:22:01.555Z,49.74
2018-03-18T18:24:32.510Z,49.51
2018-03-18T18:27:02.371Z,49.47
2018-03-18T18:29:32.420Z,48.89
2018-03-18T18:32:03.765Z,49.32
2018-03-18T18:34:35.585Z,49.41
2018-03-18T18:37:05.573Z,49.42
2018-03-18T18:39:35.683Z,49.34
2018-03-18T18:42:06.412Z,48.91
2018-03-18T18:44:37.351Z,49.45
2018-03-18T18:47:08.410Z,49.50
2018-03-18T18:49:38.428Z,49.09
2018-03-18T18:52:08.548Z,48.86
2018-03-18T18:54:39.351Z,49.24
2018-03-18T18:57:09.061Z,48.71
2018-03-18T18:59:39.832Z,49.14
2018-03-18T19:02:10.134Z,48.58
2018-03-18T19:04:40.466Z,48.52
2018-03-18T19:07:10.517Z,48.82
2018-03-18T19:09:40.502Z,49.05
2018-03-18T19:12:10.648Z,48.41
2018-03-18T19:14:41.307Z,48.72
2018-03-18T19:17:12.016Z,48.26
2018-03-18T19:19:42.002Z,48.35
2018-03-18T19:22:12.497Z,48.74
2018-03-18T19:24:43.764Z,48.97
2018-03-18T19:27:14.628Z,49.38
2018-03-18T19:29:45.419Z,49.50
2018-03-18T19:32:16.072Z,49.13
2018-03-18T19:34:46.190Z,48.51
2018-03-18T19:37:16.654Z,48.90
2018-03-18T19:39:46.498Z,49.22
2018-03-18T19:42:17.692Z,49.81
2018-03-18T19:44:47.618Z,49.26
2018-03-18T19:47:17.697Z,50.03
2018-03-18T19:49:49.274Z,50.12
2018-03-18T19:52:19.199Z,50.13
2018-03-18T19:54:49.071Z,50.08
2018-03-18T19:57:18.888Z,50.26
2018-03-18T19:59:49.671Z,49.87
2018-03-18T20:02:20.501Z,50.20
2018-03-18T20:04:54.807Z,50.11
2018-03-18T20:07:24.714Z,49.89
2018-03-18T20:09:55.661Z,50.02
2018-03-18T20:12:25.528Z,50.17
2018-03-18T20:14:56.627Z,50.36
2018-03-18T20:17:27.099Z,50.59
2018-03-18T20:19:58.283Z,50.68
2018-03-18T20:22:29.015Z,50.54
2018-03-18T20:24:58.567Z,50.45
2018-03-18T20:27:27.979Z,50.62
2018-03-18T20:29:57.921Z,51.19
2018-03-18T20:32:28.160Z,50.65
2018-03-18T20:34:58.952Z,50.56
2018-03-18T20:37:29.699Z,50.83
2018-03-18T20:40:01.070Z,50.56
2018-03-18T20:42:30.900Z,51.38
2018-03-18T20:45:00.385Z,50.85
2018-03-18T20:47:29.750Z,51.09
2018-03-18T20:49:59.245Z,51.32
2018-03-18T20:52:28.543Z,50.84
2018-03-18T20:54:57.897Z,51.53
2018-03-18T20:57:27.379Z,51.10
2018-03-18T20:59:57.650Z,51.59
2018-03-18T21:02:27.052Z,51.76
2018-03-18T21:04:58.311Z,51.72
2018-03-18T21:07:28.112Z,51.27
2018-03-18T21:09:57.448Z,51.30
2018-03-18T21:12:26.938Z,51.02
2018-03-18T21:14:56.571Z,50.77
2018-03-18T21:17:26.023Z,51.20
2018-03-18T21:19:55.534Z,51.59
2018-03-18T21:22:26.368Z,51.94
2018-03-18T21:24:55.707Z,52.20
2018-03-18T21:27:25.093Z,52.28
2018-03-18T21:29:54.650Z,52.40
2018-03-18T21:32:24.118Z,52.18
2018-03-18T21:34:53.595Z,52.90
2018-03-18T21:37:23.982Z,52.86
2018-03-18T21:39:53.398Z,52.17
2018-03-18T21:42:23.707Z,52.34
2018-03-18T21:44:53.110Z,52.60
2018-03-18T21:47:23.379Z,52.10
2018-03-18T21:49:52.794Z,52.39
2018-03-18T21:52:23.159Z,51.94
2018-03-18T21:54:52.474Z,52.96
2018-03-18T21:57:21.806Z,53.17
2018-03-18T21:59:51.211Z,53.88
2018-03-18T22:02:20.950Z,53.11
2018-03-18T22:04:51.127Z,52.98
2018-03-18T22:07:20.474Z,53.55
2018-03-18T22:09:50.626Z,53.71
2018-03-18T22:12:19.818Z,54.01
2018-03-18T22:14:50.004Z,54.15
2018-03-18T22:17:20.132Z,54.41
2018-03-18T22:19:50.318Z,54.30
2018-03-18T22:22:19.577Z,54.41
2018-03-18T22:24:48.900Z,54.41
2018-03-18T22:27:18.242Z,54.91
2018-03-18T22:29:47.374Z,55.15
2018-03-18T22:32:17.376Z,54.70
2018-03-18T22:34:46.575Z,54.55
2018-03-18T22:37:16.420Z,54.49
2018-03-18T22:39:44.917Z,54.89
2018-03-18T22:42:14.040Z,54.91
2018-03-18T22:44:43.154Z,55.12
2018-03-18T22:47:11.461Z,54.95
2018-03-18T22:49:39.747Z,55.56
2018-03-18T22:52:08.050Z,55.51
2018-03-18T22:54:36.325Z,55.50
2018-03-18T22:57:04.634Z,55.31
2018-03-18T22:59:32.915Z,55.07
2018-03-18T23:02:01.184Z,55.69
2018-03-18T23:04:29.480Z,55.72
2018-03-18T23:06:57.764Z,55.70
2018-03-18T23:09:26.058Z,56.17
2018-03-18T23:11:54.336Z,56.22
2018-03-18T23:14:22.623Z,56.42
2018-03-18T23:16:50.888Z,56.37
2018-03-18T23:19:19.174Z,56.59
2018-03-18T23:21:47.439Z,56.85
2018-03-18T23:24:15.719Z,56.63
2018-03-18T23:26:44.000Z,57.09
2018-03-18T23:29:12.265Z,57.36
2018-03-18T23:31:40.528Z,57.49
2018-03-18T23:34:08.820Z,57.07
2018-03-18T23:36:37.096Z,57.43
2018-03-18T23:39:05.398Z,57.31
2018-03-18T23:41:33.685Z,57.49
2018-03-18T23:44:02.725Z,57.59
2018-03-18T23:46:30.994Z,57.22
2018-03-18T23:48:59.274Z,57.34
2018-03-18T23:51:27.572Z,57.41
2018-03-18T23:53:55.835Z,57.18
2018-03-18T23:56:24.116Z,57.31
2018-03-18T23:58:52.372Z,57.72
